Zim Rio Grande — 9HNV9 — position and weather

sailwx.info

Track history (hours):
 
Tides and Currents Weather Stations Pressure Air Temp Water Temp Dewpoint Dewpoint Depression Visibility Wind Speed Wind Dir Waves Ship Positions

Zim Rio Grande

Last reported at 2016-Sep-21 23:10 UTC. Time now 2016-Sep-24 22:43 UTC.
Position N 31°50' E 034°39'.

Length 260 m; draft 12.4 m.

Type: Cargo ship. MMSI: 249253000.

Date/timePositionNaut miles runAvg speedWind from/ knotsBaromVisibWave heightAir tempDewpointWater temp
2016-Sep-21 23:10N 31°50' E 034°39'0 0.0
2016-Sep-21 22:28N 31°50' E 034°39'0 0.0
2016-Sep-21 19:31N 31°50' E 034°39'0 0.0
2016-Sep-21 16:31N 31°50' E 034°39'0 0.0
2016-Sep-21 08:28N 31°50' E 034°39'0 0.0
2016-Sep-21 05:31N 31°50' E 034°39'1 0.2
2016-Sep-21 02:33N 31°51' E 034°38'3 0.4
2016-Sep-20 17:31N 31°50' E 034°34'0 0.0
2016-Sep-20 14:31N 31°50' E 034°34'0 0.0
2016-Sep-20 13:31N 31°50' E 034°34'0 0.0
2016-Sep-20 10:31N 31°50' E 034°35'3 1.3
2016-Sep-20 08:33N 31°52' E 034°32'10 9.1
2016-Sep-20 07:29N 32°01' E 034°31'1112.2
2016-Sep-20 06:33N 32°12' E 034°35'4511.2
2016-Sep-20 02:33N 32°53' E 034°56'5 1.8
2016-Sep-19 23:32N 32°49' E 035°01'0 0.0
2016-Sep-19 19:32N 32°49' E 035°01'0 0.1
2016-Sep-19 18:32N 32°49' E 035°01'0 0.0
2016-Sep-19 16:29N 32°49' E 035°01'0 0.0
2016-Sep-19 14:33N 32°49' E 035°01'0 0.0
2016-Sep-19 13:33N 32°49' E 035°01'0 0.0
2016-Sep-19 12:33N 32°49' E 035°01'0 0.0
2016-Sep-19 11:33N 32°49' E 035°01'0 0.0
2016-Sep-19 09:33N 32°49' E 035°01'0 0.0
2016-Sep-19 07:33N 32°49' E 035°01'0 0.0
2016-Sep-19 06:33N 32°49' E 035°01'0 0.0
2016-Sep-19 03:33N 32°49' E 035°01'1 1.3
2016-Sep-19 02:33N 32°50' E 035°01'2210.7
2016-Sep-19 00:29N 32°56' E 034°36'14115.7
2016-Sep-18 15:32N 31°30' E 032°24'1714.5
2016-Sep-18 14:23N 31°13' E 032°21'  
Track history (hours):
 
Tides and Currents Weather Stations Pressure Air Temp Water Temp Dewpoint Dewpoint Depression Visibility Wind Speed Wind Dir Waves Ship Positions

Zim Rio Grande

Last reported at 2016-Sep-21 23:10 UTC. Time now 2016-Sep-24 22:43 UTC.
Position N 31°50' E 034°39'.

Length 260 m; draft 12.4 m.

Type: Cargo ship. MMSI: 249253000.

Date/timePositionNaut miles runAvg speedWind from/ knotsBaromVisibWave heightAir tempDewpointWater temp
2016-Sep-21 23:10N 31°50' E 034°39'0 0.0
2016-Sep-21 22:28N 31°50' E 034°39'0 0.0
2016-Sep-21 19:31N 31°50' E 034°39'0 0.0
2016-Sep-21 16:31N 31°50' E 034°39'0 0.0
2016-Sep-21 08:28N 31°50' E 034°39'0 0.0
2016-Sep-21 05:31N 31°50' E 034°39'1 0.2
2016-Sep-21 02:33N 31°51' E 034°38'3 0.4
2016-Sep-20 17:31N 31°50' E 034°34'0 0.0
2016-Sep-20 14:31N 31°50' E 034°34'0 0.0
2016-Sep-20 13:31N 31°50' E 034°34'0 0.0
2016-Sep-20 10:31N 31°50' E 034°35'3 1.3
2016-Sep-20 08:33N 31°52' E 034°32'10 9.1
2016-Sep-20 07:29N 32°01' E 034°31'1112.2
2016-Sep-20 06:33N 32°12' E 034°35'4511.2
2016-Sep-20 02:33N 32°53' E 034°56'5 1.8
2016-Sep-19 23:32N 32°49' E 035°01'0 0.0
2016-Sep-19 19:32N 32°49' E 035°01'0 0.1
2016-Sep-19 18:32N 32°49' E 035°01'0 0.0
2016-Sep-19 16:29N 32°49' E 035°01'0 0.0
2016-Sep-19 14:33N 32°49' E 035°01'0 0.0
2016-Sep-19 13:33N 32°49' E 035°01'0 0.0
2016-Sep-19 12:33N 32°49' E 035°01'0 0.0
2016-Sep-19 11:33N 32°49' E 035°01'0 0.0
2016-Sep-19 09:33N 32°49' E 035°01'0 0.0
2016-Sep-19 07:33N 32°49' E 035°01'0 0.0
2016-Sep-19 06:33N 32°49' E 035°01'0 0.0
2016-Sep-19 03:33N 32°49' E 035°01'1 1.3
2016-Sep-19 02:33N 32°50' E 035°01'2210.7
2016-Sep-19 00:29N 32°56' E 034°36'14115.7
2016-Sep-18 15:32N 31°30' E 032°24'1714.5
2016-Sep-18 14:23N 31°13' E 032°21'  

Dump ship's entire track history